Cincinnati, OH

6:04 AM EDT on April 21, 2015 (GMT -0400)
withamsville | | Change Station
CLOSE
Current Station
Personal Weather Station
Location: Cincinnati, OH
Elevation: 912 ft
Nearby Weather Stations
Active Advisory: Special Statement

Elev 912 ft 39.06 °N, 84.28 °W | Updated 6 seconds ago

Clear
Clear
39.9 °F
Feels Like 38 °F
N
3.6
Wind Variable Wind from South
Gusts 3.6 mph

Today
High -- | Low -- °F
--% Chance of Precip.
Yesterday
High -- | Low -- °F
Precip. -- in
6:52 AM 8:20 PM
Waxing Crescent, 9% visible
Pressure 29.81 in
Visibility -9999.0 miles
Clouds Clear
Windchill 38 °F
Dew Point -0 °F
Humidity 18%
Rainfall 0.00 in
Snow Depth Not available.
UV 0 out of 12
Pollen 7.60 out of 12
Air Quality Not available.
Flu Activity Regional
METAR KI69 210954Z AUTO 22007KT CLR 06/01 A2981 RMK AO1 PWINO

More Conditions Fewer Conditions

Pressure 29.81 in
Visibility -9999.0 miles
Clouds Clear
Windchill 38 °F
Dew Point -0 °F
Humidity 18%
Rainfall 0.00 in
Snow Depth Not available.
UV 0 out of 12
Pollen 7.60 out of 12
Air Quality Not available.
Flu Activity Regional
METAR KI69 210954Z AUTO 22007KT CLR 06/01 A2981 RMK AO1 PWINO

More Conditions Fewer Conditions

10-Day Weather Forecast

Almanac

Astronomy

Apr. 21, 2015 Rise Set
Actual Time
Civil Twilight
Nautical Twilight
Astronomical Twilight
Moon
Length of Visible Light
Length of Day
Tomorrow will be .
, % of the Moon is Illuminated

Today's Extremes

State Highs State Lows

Community

WunderPhotos

Upload Photos

1,815,337 photos uploaded!

WunderBlogs® & News

Nearby

Air Quality

  Air Quality AQ Index Pollutant
Not available.

Snow Depth

Station Depth Elevation

Earthquake Activity

City Distance Mag. Time & Date
Minimum magnitude displayed is 2.5.

Coastal Water Temperatures

Place Temperature

Stations

Nearby Weather Stations

Station Location Temp. Windchill Dew Point Humidity Wind Precip. Elev Updated Type
                   
Special Statement
Statement as of 3:16 AM EDT on April 21, 2015

... Gusty winds expected today...

Westerly winds will increase in strength today... becoming
especially gusty from late morning through mid afternoon. Wind
gusts may be as high as 35 to 45 mph.

These gusts may make driving difficult. Motorists in high profile
vehicles should use caution until the winds subside.